createdAt,value
2023-04-27T00:00:09.723Z,5.84
2023-04-27T00:02:58.375Z,5.80
2023-04-27T00:05:27.792Z,5.74
2023-04-27T00:07:56.508Z,5.70
2023-04-27T00:10:25.088Z,5.65
2023-04-27T00:12:53.849Z,5.60
2023-04-27T00:15:22.579Z,5.55
2023-04-27T00:17:51.616Z,5.51
2023-04-27T00:20:20.969Z,5.48
2023-04-27T00:22:49.681Z,5.43
2023-04-27T00:25:18.349Z,5.39
2023-04-27T00:27:46.995Z,5.34
2023-04-27T00:30:15.693Z,5.31
2023-04-27T00:32:44.319Z,5.29
2023-04-27T00:35:12.990Z,5.27
2023-04-27T00:37:43.776Z,5.21
2023-04-27T00:40:12.760Z,5.18
2023-04-27T00:42:41.284Z,5.15
2023-04-27T00:45:11.136Z,5.14
2023-04-27T00:47:40.239Z,5.11
2023-04-27T00:50:10.788Z,5.10
2023-04-27T00:52:40.017Z,5.08
2023-04-27T00:55:09.762Z,5.06
2023-04-27T00:57:39.185Z,5.06
2023-04-27T01:00:11.192Z,5.06
2023-04-27T01:02:40.700Z,5.05
2023-04-27T01:05:10.560Z,5.05
2023-04-27T01:07:41.210Z,5.10
2023-04-27T01:10:10.387Z,5.13
2023-04-27T01:12:39.144Z,5.13
2023-04-27T01:15:08.955Z,5.16
2023-04-27T01:17:37.764Z,5.14
2023-04-27T01:20:10.982Z,5.14
2023-04-27T01:22:39.958Z,5.15
2023-04-27T01:25:09.072Z,5.16
2023-04-27T01:27:37.647Z,5.14
2023-04-27T01:30:08.066Z,5.12
2023-04-27T01:32:39.711Z,5.09
2023-04-27T01:35:08.934Z,5.08
2023-04-27T01:37:37.743Z,5.06
2023-04-27T01:40:07.570Z,5.03
2023-04-27T01:42:36.314Z,5.06
2023-04-27T01:45:05.804Z,5.02
2023-04-27T01:47:34.518Z,5.01
2023-04-27T01:50:03.982Z,5.01
2023-04-27T01:52:32.578Z,5.00
2023-04-27T01:55:01.120Z,4.97
2023-04-27T01:57:29.660Z,4.96
2023-04-27T01:59:58.360Z,4.93
2023-04-27T02:02:27.254Z,4.90
2023-04-27T02:04:56.124Z,4.88
2023-04-27T02:07:24.688Z,4.85
2023-04-27T02:09:53.294Z,4.81
2023-04-27T02:12:21.940Z,4.78
2023-04-27T02:14:50.608Z,4.77
2023-04-27T02:17:19.324Z,4.72
2023-04-27T02:19:47.953Z,4.69
2023-04-27T02:22:17.546Z,4.65
2023-04-27T02:24:46.640Z,4.63
2023-04-27T02:27:15.347Z,4.61
2023-04-27T02:29:44.671Z,4.62
2023-04-27T02:32:13.886Z,4.62
2023-04-27T02:34:42.596Z,4.64
2023-04-27T02:37:11.501Z,4.65
2023-04-27T02:39:40.123Z,4.64
2023-04-27T02:42:08.684Z,4.65
2023-04-27T02:44:37.367Z,4.67
2023-04-27T02:47:06.235Z,4.65
2023-04-27T02:49:37.910Z,4.63
2023-04-27T02:52:07.182Z,4.62
2023-04-27T02:54:35.889Z,4.61
2023-04-27T02:57:04.440Z,4.62
2023-04-27T02:59:33.435Z,4.60
2023-04-27T03:02:02.498Z,4.56
2023-04-27T03:04:31.779Z,4.53
2023-04-27T03:07:01.896Z,4.49
2023-04-27T03:09:30.528Z,4.43
2023-04-27T03:11:59.295Z,4.41
2023-04-27T03:14:28.896Z,4.40
2023-04-27T03:16:57.676Z,4.37
2023-04-27T03:19:26.349Z,4.34
2023-04-27T03:21:55.035Z,4.34
2023-04-27T03:24:25.744Z,4.31
2023-04-27T03:26:54.378Z,4.29
2023-04-27T03:29:23.184Z,4.28
2023-04-27T03:31:51.883Z,4.28
2023-04-27T03:34:22.018Z,4.30
2023-04-27T03:36:51.234Z,4.32
2023-04-27T03:39:20.056Z,4.32
2023-04-27T03:41:48.904Z,4.35
2023-04-27T03:44:17.686Z,4.41
2023-04-27T03:46:46.436Z,4.44
2023-04-27T03:49:15.438Z,4.44
2023-04-27T03:51:44.452Z,4.48
2023-04-27T03:54:13.232Z,4.53
2023-04-27T03:56:45.420Z,4.60
2023-04-27T03:59:16.150Z,4.64
2023-04-27T04:01:51.614Z,4.72
2023-04-27T04:04:24.535Z,4.80
2023-04-27T04:06:54.595Z,4.78
2023-04-27T04:09:28.219Z,4.86
2023-04-27T04:11:58.085Z,4.92
2023-04-27T04:14:28.324Z,4.97
2023-04-27T04:16:57.252Z,5.09
2023-04-27T04:19:26.043Z,5.18
2023-04-27T04:21:57.216Z,5.28
2023-04-27T04:24:26.408Z,5.39
2023-04-27T04:26:56.182Z,5.46
2023-04-27T04:29:25.636Z,5.56
2023-04-27T04:31:56.125Z,5.60
2023-04-27T04:34:24.810Z,5.70
2023-04-27T04:36:53.694Z,5.69
2023-04-27T04:39:23.109Z,5.76
2023-04-27T04:41:51.765Z,5.81
2023-04-27T04:44:21.300Z,5.86
2023-04-27T04:46:50.430Z,5.97
2023-04-27T04:49:19.617Z,6.03
2023-04-27T04:51:48.518Z,6.13
2023-04-27T04:54:17.348Z,6.19
2023-04-27T04:56:46.661Z,6.20
2023-04-27T04:59:15.512Z,6.21
2023-04-27T05:01:44.406Z,6.22
2023-04-27T05:04:13.556Z,6.26
2023-04-27T05:06:42.607Z,6.30
2023-04-27T05:09:12.366Z,6.37
2023-04-27T05:11:41.431Z,6.41
2023-04-27T05:14:10.438Z,6.42
2023-04-27T05:16:39.522Z,6.50
2023-04-27T05:19:08.634Z,6.60
2023-04-27T05:21:37.547Z,6.60
2023-04-27T05:24:06.991Z,6.68
2023-04-27T05:26:36.031Z,6.76
2023-04-27T05:29:04.758Z,6.78
2023-04-27T05:31:33.698Z,6.79
2023-04-27T05:34:02.483Z,6.77
2023-04-27T05:36:31.319Z,6.83
2023-04-27T05:39:00.089Z,6.90
2023-04-27T05:41:30.457Z,6.89
2023-04-27T05:43:59.286Z,6.94
2023-04-27T05:46:28.158Z,7.00
2023-04-27T05:48:57.072Z,7.07
2023-04-27T05:51:25.980Z,7.12
2023-04-27T05:53:55.672Z,7.17
2023-04-27T05:56:24.423Z,7.28
2023-04-27T05:58:53.243Z,7.33
2023-04-27T06:01:21.985Z,7.37
2023-04-27T06:03:50.970Z,7.35
2023-04-27T06:06:19.987Z,7.39
2023-04-27T06:08:48.925Z,7.43
2023-04-27T06:11:18.281Z,7.48
2023-04-27T06:13:47.199Z,7.54
2023-04-27T06:16:16.505Z,7.62
2023-04-27T06:18:45.390Z,7.65
2023-04-27T06:21:14.149Z,7.74
2023-04-27T06:23:42.754Z,7.76
2023-04-27T06:26:11.739Z,7.79
2023-04-27T06:28:40.629Z,7.82
2023-04-27T06:31:09.480Z,7.83
2023-04-27T06:33:38.256Z,7.84
2023-04-27T06:36:07.752Z,7.89
2023-04-27T06:38:36.523Z,7.93
2023-04-27T06:41:06.892Z,8.01
2023-04-27T06:43:35.851Z,7.99
2023-04-27T06:46:05.652Z,8.01
2023-04-27T06:48:35.099Z,8.08
2023-04-27T06:51:04.106Z,8.08
2023-04-27T06:53:33.065Z,8.10
2023-04-27T06:56:02.190Z,8.20
2023-04-27T06:58:31.058Z,8.33
2023-04-27T07:00:59.800Z,8.42
2023-04-27T07:03:28.537Z,8.49
2023-04-27T07:05:59.256Z,8.47
2023-04-27T07:08:27.892Z,8.50
2023-04-27T07:10:56.811Z,8.53
2023-04-27T07:13:25.620Z,8.59
2023-04-27T07:16:01.479Z,8.66
2023-04-27T07:18:30.305Z,8.68
2023-04-27T07:20:59.049Z,8.84
2023-04-27T07:23:27.874Z,9.04
2023-04-27T07:25:57.903Z,9.09
2023-04-27T07:28:29.704Z,9.13
2023-04-27T07:30:58.524Z,9.23
2023-04-27T07:33:28.034Z,9.23
2023-04-27T07:35:56.853Z,9.21
2023-04-27T07:38:25.923Z,9.13
2023-04-27T07:40:54.825Z,9.12
2023-04-27T07:43:25.907Z,9.14
2023-04-27T07:45:58.838Z,9.16
2023-04-27T07:48:29.053Z,9.14
2023-04-27T07:50:58.381Z,9.18
2023-04-27T07:53:27.107Z,9.10
2023-04-27T07:55:55.744Z,9.05
2023-04-27T07:58:24.612Z,9.01
2023-04-27T08:00:53.329Z,9.03
2023-04-27T08:03:23.227Z,9.04
2023-04-27T08:05:52.449Z,9.02
2023-04-27T08:08:21.899Z,8.99
2023-04-27T08:10:50.842Z,9.02
2023-04-27T08:13:19.641Z,9.10
2023-04-27T08:15:48.414Z,9.14
2023-04-27T08:18:18.194Z,9.06
2023-04-27T08:20:47.028Z,9.06
2023-04-27T08:23:15.934Z,9.02
2023-04-27T08:25:44.641Z,8.98
2023-04-27T08:28:15.024Z,9.15
2023-04-27T08:30:44.339Z,9.06
2023-04-27T08:33:13.563Z,9.11
2023-04-27T08:35:42.226Z,9.17
2023-04-27T08:38:10.973Z,9.16
2023-04-27T08:40:44.133Z,9.17
2023-04-27T08:43:12.924Z,9.21
2023-04-27T08:45:53.478Z,9.18
2023-04-27T08:48:22.500Z,9.13
2023-04-27T08:50:52.087Z,9.19
2023-04-27T08:53:24.311Z,9.31
2023-04-27T08:55:53.224Z,9.34
2023-04-27T08:58:22.026Z,9.49
2023-04-27T09:00:52.673Z,9.67
2023-04-27T09:03:27.737Z,9.74
2023-04-27T09:06:05.259Z,9.74
2023-04-27T09:08:51.475Z,9.73
2023-04-27T09:11:31.992Z,9.83
2023-04-27T09:14:03.644Z,9.96
2023-04-27T09:16:34.470Z,10.12
2023-04-27T09:19:03.267Z,10.13
2023-04-27T09:21:32.894Z,10.16
2023-04-27T09:24:15.316Z,10.12
2023-04-27T09:26:50.453Z,10.20
2023-04-27T09:29:19.189Z,10.20
2023-04-27T09:31:47.853Z,10.23
2023-04-27T09:34:16.665Z,10.29
2023-04-27T09:36:45.689Z,10.29
2023-04-27T09:39:15.764Z,10.27
2023-04-27T09:41:45.152Z,10.28
2023-04-27T09:44:14.742Z,10.15
2023-04-27T09:46:45.850Z,10.10
2023-04-27T09:49:16.440Z,10.17
2023-04-27T09:51:45.198Z,10.27
2023-04-27T09:54:15.045Z,10.24
2023-04-27T09:57:21.807Z,10.23
2023-04-27T10:00:40.991Z,10.19
2023-04-27T10:03:33.196Z,10.02
2023-04-27T10:06:36.136Z,9.93
2023-04-27T10:09:09.256Z,9.97
2023-04-27T10:11:44.792Z,9.96
2023-04-27T10:14:19.943Z,10.11
2023-04-27T10:16:59.890Z,10.08
2023-04-27T10:19:28.940Z,10.10
2023-04-27T10:22:08.622Z,10.13
2023-04-27T10:24:44.341Z,10.20
2023-04-27T10:27:20.186Z,10.24
2023-04-27T10:29:50.526Z,10.29
2023-04-27T10:32:26.966Z,10.36
2023-04-27T10:35:09.124Z,10.33
2023-04-27T10:37:43.064Z,10.20
2023-04-27T10:40:19.959Z,10.19
2023-04-27T10:42:49.876Z,10.25
2023-04-27T10:45:31.508Z,10.26
2023-04-27T10:48:01.962Z,10.27
2023-04-27T10:50:32.504Z,10.20
2023-04-27T10:53:05.432Z,10.13
2023-04-27T10:55:36.305Z,10.22
2023-04-27T10:58:09.635Z,10.22
2023-04-27T11:00:44.511Z,10.40
2023-04-27T11:03:19.782Z,10.49
2023-04-27T11:05:58.984Z,10.70
2023-04-27T11:08:27.866Z,10.87
2023-04-27T11:10:57.388Z,10.84
2023-04-27T11:13:28.944Z,10.75
2023-04-27T11:16:00.315Z,10.58
2023-04-27T11:18:36.075Z,10.47
2023-04-27T11:21:17.267Z,10.45
2023-04-27T11:23:46.095Z,10.30
2023-04-27T11:26:21.823Z,10.25
2023-04-27T11:29:12.573Z,10.22
2023-04-27T11:31:51.449Z,10.18
2023-04-27T11:34:23.640Z,10.11
2023-04-27T11:39:39.165Z,10.28
2023-04-27T11:42:29.150Z,10.32
2023-04-27T11:45:06.751Z,10.47
2023-04-27T11:47:39.437Z,10.50
2023-04-27T11:50:08.800Z,10.51
2023-04-27T11:52:40.502Z,10.70
2023-04-27T11:55:15.994Z,10.72
2023-04-27T11:57:45.207Z,10.96
2023-04-27T12:00:15.378Z,10.99
2023-04-27T12:02:44.961Z,11.05
2023-04-27T12:05:14.747Z,11.23
2023-04-27T12:07:43.833Z,11.21
2023-04-27T12:10:13.077Z,11.14
2023-04-27T12:12:41.945Z,11.02
2023-04-27T12:15:11.348Z,10.90
2023-04-27T12:17:40.381Z,10.80
2023-04-27T12:20:10.143Z,10.62
2023-04-27T12:22:38.919Z,10.48
2023-04-27T12:25:08.112Z,10.47
2023-04-27T12:27:36.756Z,10.47
2023-04-27T12:30:07.049Z,10.45
2023-04-27T12:32:36.268Z,10.56
2023-04-27T12:35:07.004Z,10.67
2023-04-27T12:37:35.868Z,10.83
2023-04-27T12:40:09.256Z,11.01
2023-04-27T12:42:41.222Z,11.15
2023-04-27T12:45:11.038Z,11.26
2023-04-27T12:47:54.548Z,11.36
2023-04-27T12:50:32.664Z,11.26
2023-04-27T12:53:01.537Z,11.11
2023-04-27T12:55:33.674Z,10.89
2023-04-27T12:58:03.570Z,10.72
2023-04-27T13:00:32.444Z,10.68
2023-04-27T13:03:01.431Z,10.59
2023-04-27T13:05:32.084Z,10.54
2023-04-27T13:08:01.264Z,10.60
2023-04-27T13:10:30.059Z,10.68
2023-04-27T13:13:00.205Z,10.80
2023-04-27T13:15:29.198Z,10.85
2023-04-27T13:17:59.333Z,10.93
2023-04-27T13:20:28.280Z,11.06
2023-04-27T13:22:57.174Z,11.18
2023-04-27T13:25:26.291Z,11.29
2023-04-27T13:27:55.017Z,11.31
2023-04-27T13:30:23.930Z,11.49
2023-04-27T13:32:53.458Z,11.44
2023-04-27T13:35:23.899Z,11.47
2023-04-27T13:37:54.014Z,11.54
2023-04-27T13:40:22.887Z,11.46
2023-04-27T13:42:52.180Z,11.30
2023-04-27T13:45:21.571Z,11.17
2023-04-27T13:47:50.688Z,11.17
2023-04-27T13:50:19.618Z,11.22
2023-04-27T13:52:48.492Z,11.27
2023-04-27T13:55:17.251Z,11.22
2023-04-27T13:57:46.254Z,11.20
2023-04-27T14:00:15.550Z,11.21
2023-04-27T14:02:44.346Z,11.13
2023-04-27T14:05:13.309Z,11.09
2023-04-27T14:07:42.313Z,11.17
2023-04-27T14:10:12.348Z,11.16
2023-04-27T14:12:41.488Z,11.09
2023-04-27T14:15:11.037Z,10.97
2023-04-27T14:17:39.870Z,10.92
2023-04-27T14:20:09.411Z,10.98
2023-04-27T14:22:38.310Z,10.93
2023-04-27T14:25:07.875Z,10.98
2023-04-27T14:27:37.765Z,10.98
2023-04-27T14:30:08.002Z,11.04
2023-04-27T14:32:36.794Z,11.10
2023-04-27T14:35:06.040Z,11.01
2023-04-27T14:37:34.642Z,11.04
2023-04-27T14:40:05.025Z,11.01
2023-04-27T14:42:42.768Z,11.06
2023-04-27T14:45:14.009Z,11.03
2023-04-27T14:47:43.087Z,10.94
2023-04-27T14:50:12.226Z,10.79
2023-04-27T14:52:43.408Z,10.62
2023-04-27T14:55:15.009Z,10.53
2023-04-27T14:57:43.894Z,10.44
2023-04-27T15:00:15.062Z,10.30
2023-04-27T15:02:44.091Z,10.16
2023-04-27T15:05:13.126Z,10.12
2023-04-27T15:07:42.064Z,10.09
2023-04-27T15:10:11.204Z,10.06
2023-04-27T15:12:40.046Z,10.06
2023-04-27T15:15:10.502Z,9.96
2023-04-27T15:17:39.847Z,10.03
2023-04-27T15:20:09.189Z,10.08
2023-04-27T15:22:37.923Z,10.17
2023-04-27T15:25:08.641Z,10.27
2023-04-27T15:27:37.880Z,10.30
2023-04-27T15:30:08.113Z,10.30
2023-04-27T15:32:37.222Z,10.37
2023-04-27T15:35:06.894Z,10.53
2023-04-27T15:37:37.005Z,10.53
2023-04-27T15:40:10.198Z,10.62
2023-04-27T15:42:38.920Z,10.74
2023-04-27T15:45:10.268Z,10.79
2023-04-27T15:47:39.101Z,10.89
2023-04-27T15:50:08.478Z,11.07
2023-04-27T15:52:37.150Z,10.95
2023-04-27T15:55:06.996Z,10.81
2023-04-27T15:57:35.759Z,10.59
2023-04-27T16:00:10.680Z,10.38
2023-04-27T16:02:40.693Z,10.24
2023-04-27T16:05:10.665Z,10.09
2023-04-27T16:07:40.026Z,10.01
2023-04-27T16:10:10.251Z,9.87
2023-04-27T16:12:39.441Z,9.89
2023-04-27T16:15:11.230Z,9.87
2023-04-27T16:17:43.380Z,9.85
2023-04-27T16:20:12.221Z,9.80
2023-04-27T16:22:40.962Z,9.76
2023-04-27T16:25:13.354Z,9.80
2023-04-27T16:27:42.826Z,9.78
2023-04-27T16:30:11.872Z,9.72
2023-04-27T16:32:40.732Z,9.70
2023-04-27T16:35:10.169Z,9.67
2023-04-27T16:37:39.000Z,9.64
2023-04-27T16:40:08.743Z,9.57
2023-04-27T16:42:37.534Z,9.58
2023-04-27T16:45:09.122Z,9.52
2023-04-27T16:47:39.506Z,9.49
2023-04-27T16:50:11.630Z,9.46
2023-04-27T16:52:40.745Z,9.39
2023-04-27T16:55:09.691Z,9.35
2023-04-27T16:57:38.286Z,9.27
2023-04-27T17:00:09.975Z,9.23
2023-04-27T17:02:40.516Z,9.21
2023-04-27T17:05:10.794Z,9.14
2023-04-27T17:07:39.473Z,9.10
2023-04-27T17:10:09.634Z,9.03
2023-04-27T17:12:39.473Z,8.95
2023-04-27T17:15:08.864Z,8.93
2023-04-27T17:17:37.692Z,8.91
2023-04-27T17:20:08.060Z,8.86
2023-04-27T17:22:37.279Z,8.83
2023-04-27T17:25:06.710Z,8.79
2023-04-27T17:27:35.395Z,8.77
2023-04-27T17:30:05.723Z,8.75
2023-04-27T17:32:34.863Z,8.72
2023-04-27T17:35:03.799Z,8.71
2023-04-27T17:37:32.674Z,8.69
2023-04-27T17:40:01.524Z,8.67
2023-04-27T17:42:30.424Z,8.68
2023-04-27T17:44:59.282Z,8.66
2023-04-27T17:47:28.251Z,8.66
2023-04-27T17:49:57.202Z,8.65
2023-04-27T17:52:26.087Z,8.64
2023-04-27T17:54:55.997Z,8.61
2023-04-27T17:57:24.646Z,8.60
2023-04-27T17:59:54.597Z,8.59
2023-04-27T18:02:23.448Z,8.57
2023-04-27T18:04:53.045Z,8.55
2023-04-27T18:07:21.780Z,8.54
2023-04-27T18:09:50.675Z,8.55
2023-04-27T18:12:19.668Z,8.55
2023-04-27T18:14:48.303Z,8.52
2023-04-27T18:17:17.175Z,8.54
2023-04-27T18:19:46.802Z,8.53
2023-04-27T18:22:15.634Z,8.51
2023-04-27T18:24:44.462Z,8.51
2023-04-27T18:27:16.686Z,8.48
2023-04-27T18:29:45.901Z,8.44
2023-04-27T18:32:14.830Z,8.41
2023-04-27T18:34:43.738Z,8.39
2023-04-27T18:37:12.416Z,8.37
2023-04-27T18:39:42.576Z,8.32
2023-04-27T18:42:11.285Z,8.32
2023-04-27T18:44:40.487Z,8.31
2023-04-27T18:47:09.192Z,8.28
2023-04-27T18:49:38.024Z,8.24
2023-04-27T18:52:11.738Z,8.20
2023-04-27T18:54:40.585Z,8.16
2023-04-27T18:57:09.256Z,8.14
2023-04-27T18:59:39.657Z,8.10
2023-04-27T19:02:09.075Z,8.07
2023-04-27T19:04:37.933Z,7.98
2023-04-27T19:07:07.453Z,7.91
2023-04-27T19:09:36.177Z,7.84
2023-04-27T19:12:05.902Z,7.76
2023-04-27T19:14:38.803Z,7.70
2023-04-27T19:17:07.989Z,7.61
2023-04-27T19:19:37.341Z,7.54
2023-04-27T19:22:07.425Z,7.48
2023-04-27T19:24:40.010Z,7.42
2023-04-27T19:27:11.788Z,7.35
2023-04-27T19:30:02.134Z,7.29
2023-04-27T19:32:34.411Z,7.22
2023-04-27T19:35:05.612Z,7.20
2023-04-27T19:37:34.924Z,7.14
2023-04-27T19:40:04.762Z,7.10
2023-04-27T19:42:33.639Z,7.06
2023-04-27T19:45:04.303Z,7.02
2023-04-27T19:47:35.867Z,6.96
2023-04-27T19:50:10.270Z,6.93
2023-04-27T19:52:39.069Z,6.87
2023-04-27T19:55:09.272Z,6.80
2023-04-27T19:57:38.081Z,6.69
2023-04-27T20:00:12.269Z,6.60
2023-04-27T20:02:44.019Z,6.52
2023-04-27T20:05:13.708Z,6.45
2023-04-27T20:07:42.790Z,6.41
2023-04-27T20:10:11.474Z,6.36
2023-04-27T20:12:55.483Z,6.31
2023-04-27T20:15:25.500Z,6.27
2023-04-27T20:17:54.410Z,6.22
2023-04-27T20:20:23.209Z,6.20
2023-04-27T20:22:52.005Z,6.16
2023-04-27T20:25:20.851Z,6.15
2023-04-27T20:27:50.034Z,6.11
2023-04-27T20:30:18.945Z,6.10
2023-04-27T20:32:47.564Z,6.06
2023-04-27T20:35:16.226Z,6.04
2023-04-27T20:37:44.773Z,6.01
2023-04-27T20:40:17.797Z,6.01
2023-04-27T20:42:46.792Z,5.94
2023-04-27T20:45:15.832Z,5.91
2023-04-27T20:47:44.683Z,5.86
2023-04-27T20:50:13.701Z,5.82
2023-04-27T20:53:51.690Z,5.76
2023-04-27T20:56:20.729Z,5.70
2023-04-27T20:58:49.546Z,5.65
2023-04-27T21:01:18.248Z,5.60
2023-04-27T21:03:47.258Z,5.56
2023-04-27T21:06:16.286Z,5.53
2023-04-27T21:08:45.042Z,5.49
2023-04-27T21:11:15.073Z,5.50
2023-04-27T21:13:46.433Z,5.47
2023-04-27T21:16:15.200Z,5.43
2023-04-27T21:18:43.902Z,5.43
2023-04-27T21:21:12.641Z,5.43
2023-04-27T21:23:41.294Z,5.41
2023-04-27T21:26:10.988Z,5.39
2023-04-27T21:28:40.573Z,5.35
2023-04-27T21:31:09.851Z,5.30
2023-04-27T21:33:38.697Z,5.27
2023-04-27T21:36:07.598Z,5.24
2023-04-27T21:38:36.335Z,5.25
2023-04-27T21:41:05.108Z,5.24
2023-04-27T21:43:34.093Z,5.23
2023-04-27T21:46:02.968Z,5.25
2023-04-27T21:48:31.613Z,5.25
2023-04-27T21:51:00.265Z,5.27
2023-04-27T21:53:30.750Z,5.25
2023-04-27T21:56:00.020Z,5.24
2023-04-27T21:58:28.821Z,5.26
2023-04-27T22:00:57.464Z,5.29
2023-04-27T22:03:26.823Z,5.31
2023-04-27T22:05:57.789Z,5.32
2023-04-27T22:08:26.460Z,5.33
2023-04-27T22:10:56.482Z,5.32
2023-04-27T22:13:25.172Z,5.32
2023-04-27T22:15:53.823Z,5.30
2023-04-27T22:18:22.536Z,5.26
2023-04-27T22:20:51.312Z,5.19
2023-04-27T22:23:20.815Z,5.18
2023-04-27T22:25:49.691Z,5.16
2023-04-27T22:28:18.357Z,5.17
2023-04-27T22:30:47.160Z,5.19
2023-04-27T22:33:16.895Z,5.19
2023-04-27T22:35:46.304Z,5.19
2023-04-27T22:38:15.129Z,5.17
2023-04-27T22:40:43.893Z,5.09
2023-04-27T22:43:12.710Z,5.09
2023-04-27T22:45:41.374Z,5.12
2023-04-27T22:48:10.187Z,5.07
2023-04-27T22:50:39.613Z,5.06
2023-04-27T22:53:08.439Z,5.01
2023-04-27T22:55:37.191Z,4.99
2023-04-27T22:58:06.205Z,5.01
2023-04-27T23:00:34.999Z,5.02
2023-04-27T23:03:03.829Z,4.98
2023-04-27T23:05:33.165Z,4.95
2023-04-27T23:08:03.209Z,4.95
2023-04-27T23:10:31.879Z,4.94
2023-04-27T23:13:02.151Z,4.93
2023-04-27T23:15:31.862Z,4.91
2023-04-27T23:18:00.569Z,4.92
2023-04-27T23:20:29.427Z,4.86
2023-04-27T23:22:58.342Z,4.83
2023-04-27T23:25:27.105Z,4.82
2023-04-27T23:27:55.792Z,4.79
2023-04-27T23:30:24.446Z,4.76
2023-04-27T23:32:53.319Z,4.75
2023-04-27T23:35:22.248Z,4.73
2023-04-27T23:37:50.933Z,4.70
2023-04-27T23:40:19.650Z,4.68
2023-04-27T23:42:49.652Z,4.68
2023-04-27T23:45:21.132Z,4.67
2023-04-27T23:47:49.877Z,4.68
2023-04-27T23:50:18.732Z,4.71
2023-04-27T23:52:47.773Z,4.73
2023-04-27T23:55:16.912Z,4.71
2023-04-27T23:57:45.684Z,4.73
